sensor_id;sensor_type;location;lat;lon;timestamp;temperature;humidity
42201;DHT22;27869;51.442;7.540;2023-06-10T00:01:38;18.00;99.90
42201;DHT22;27869;51.442;7.540;2023-06-10T00:04:06;18.00;99.90
42201;DHT22;27869;51.442;7.540;2023-06-10T00:06:32;17.90;99.90
42201;DHT22;27869;51.442;7.540;2023-06-10T00:09:02;17.90;99.90
42201;DHT22;27869;51.442;7.540;2023-06-10T00:11:30;17.80;99.90
42201;DHT22;27869;51.442;7.540;2023-06-10T00:13:58;17.80;99.90
42201;DHT22;27869;51.442;7.540;2023-06-10T00:16:24;17.70;99.90
42201;DHT22;27869;51.442;7.540;2023-06-10T00:18:53;17.70;99.90
42201;DHT22;27869;51.442;7.540;2023-06-10T00:21:21;17.70;99.90
42201;DHT22;27869;51.442;7.540;2023-06-10T00:23:49;17.60;99.90
42201;DHT22;27869;51.442;7.540;2023-06-10T00:26:16;17.60;99.90
42201;DHT22;27869;51.442;7.540;2023-06-10T00:28:43;17.50;99.90
42201;DHT22;27869;51.442;7.540;2023-06-10T00:31:11;17.50;99.90
42201;DHT22;27869;51.442;7.540;2023-06-10T00:33:38;17.50;99.90
42201;DHT22;27869;51.442;7.540;2023-06-10T00:36:06;17.40;99.90
42201;DHT22;27869;51.442;7.540;2023-06-10T00:38:33;17.40;99.90
42201;DHT22;27869;51.442;7.540;2023-06-10T00:41:00;17.30;99.90
42201;DHT22;27869;51.442;7.540;2023-06-10T00:43:27;17.30;99.90
42201;DHT22;27869;51.442;7.540;2023-06-10T00:45:54;17.30;99.90
42201;DHT22;27869;51.442;7.540;2023-06-10T00:48:21;17.20;99.90
42201;DHT22;27869;51.442;7.540;2023-06-10T00:50:48;17.20;99.90
42201;DHT22;27869;51.442;7.540;2023-06-10T00:53:17;17.10;99.90
42201;DHT22;27869;51.442;7.540;2023-06-10T00:55:44;17.10;99.90
42201;DHT22;27869;51.442;7.540;2023-06-10T00:58:11;17.00;99.90
42201;DHT22;27869;51.442;7.540;2023-06-10T01:00:38;17.00;99.90
42201;DHT22;27869;51.442;7.540;2023-06-10T01:03:05;16.90;99.90
42201;DHT22;27869;51.442;7.540;2023-06-10T01:05:33;16.90;99.90
42201;DHT22;27869;51.442;7.540;2023-06-10T01:08:06;16.80;99.90
42201;DHT22;27869;51.442;7.540;2023-06-10T01:10:38;16.80;99.90
42201;DHT22;27869;51.442;7.540;2023-06-10T01:13:07;16.80;99.90
42201;DHT22;27869;51.442;7.540;2023-06-10T01:15:37;16.70;99.90
42201;DHT22;27869;51.442;7.540;2023-06-10T01:18:06;16.70;99.90
42201;DHT22;27869;51.442;7.540;2023-06-10T01:20:36;16.60;99.90
42201;DHT22;27869;51.442;7.540;2023-06-10T01:23:07;16.60;99.90
42201;DHT22;27869;51.442;7.540;2023-06-10T01:25:37;16.60;99.90
42201;DHT22;27869;51.442;7.540;2023-06-10T01:28:08;16.50;99.90
42201;DHT22;27869;51.442;7.540;2023-06-10T01:30:42;16.50;99.90
42201;DHT22;27869;51.442;7.540;2023-06-10T01:33:12;16.40;99.90
42201;DHT22;27869;51.442;7.540;2023-06-10T01:35:41;16.40;99.90
42201;DHT22;27869;51.442;7.540;2023-06-10T01:38:11;16.40;99.90
42201;DHT22;27869;51.442;7.540;2023-06-10T01:40:39;16.30;99.90
42201;DHT22;27869;51.442;7.540;2023-06-10T01:43:06;16.30;99.90
42201;DHT22;27869;51.442;7.540;2023-06-10T01:45:33;16.30;99.90
42201;DHT22;27869;51.442;7.540;2023-06-10T01:48:00;16.20;99.90
42201;DHT22;27869;51.442;7.540;2023-06-10T01:50:27;16.20;99.90
42201;DHT22;27869;51.442;7.540;2023-06-10T01:52:54;16.10;99.90
42201;DHT22;27869;51.442;7.540;2023-06-10T01:55:22;16.10;99.90
42201;DHT22;27869;51.442;7.540;2023-06-10T01:57:49;16.10;99.90
42201;DHT22;27869;51.442;7.540;2023-06-10T02:00:17;16.10;99.90
42201;DHT22;27869;51.442;7.540;2023-06-10T02:02:44;16.00;99.90
42201;DHT22;27869;51.442;7.540;2023-06-10T02:05:11;16.00;99.90
42201;DHT22;27869;51.442;7.540;2023-06-10T02:07:38;16.00;99.90
42201;DHT22;27869;51.442;7.540;2023-06-10T02:10:07;15.90;99.90
42201;DHT22;27869;51.442;7.540;2023-06-10T02:12:35;15.80;99.90
42201;DHT22;27869;51.442;7.540;2023-06-10T02:15:02;15.80;99.90
42201;DHT22;27869;51.442;7.540;2023-06-10T02:17:30;15.80;99.90
42201;DHT22;27869;51.442;7.540;2023-06-10T02:19:58;15.80;99.90
42201;DHT22;27869;51.442;7.540;2023-06-10T02:22:25;15.80;99.90
42201;DHT22;27869;51.442;7.540;2023-06-10T02:24:52;15.70;99.90
42201;DHT22;27869;51.442;7.540;2023-06-10T02:27:19;15.70;99.90
42201;DHT22;27869;51.442;7.540;2023-06-10T02:29:47;15.70;99.90
42201;DHT22;27869;51.442;7.540;2023-06-10T02:32:14;15.70;99.90
42201;DHT22;27869;51.442;7.540;2023-06-10T02:34:41;15.60;99.90
42201;DHT22;27869;51.442;7.540;2023-06-10T02:37:09;15.60;99.90
42201;DHT22;27869;51.442;7.540;2023-06-10T02:39:36;15.60;99.90
42201;DHT22;27869;51.442;7.540;2023-06-10T02:42:03;15.50;99.90
42201;DHT22;27869;51.442;7.540;2023-06-10T02:44:31;15.50;99.90
42201;DHT22;27869;51.442;7.540;2023-06-10T02:46:59;15.50;99.90
42201;DHT22;27869;51.442;7.540;2023-06-10T02:49:26;15.40;99.90
42201;DHT22;27869;51.442;7.540;2023-06-10T02:51:53;15.50;99.90
42201;DHT22;27869;51.442;7.540;2023-06-10T02:54:22;15.40;99.90
42201;DHT22;27869;51.442;7.540;2023-06-10T02:56:49;15.40;99.90
42201;DHT22;27869;51.442;7.540;2023-06-10T02:59:16;15.30;99.90
42201;DHT22;27869;51.442;7.540;2023-06-10T03:01:43;15.30;99.90
42201;DHT22;27869;51.442;7.540;2023-06-10T03:04:11;15.30;99.90
42201;DHT22;27869;51.442;7.540;2023-06-10T03:06:38;15.20;99.90
42201;DHT22;27869;51.442;7.540;2023-06-10T03:09:06;15.20;99.90
42201;DHT22;27869;51.442;7.540;2023-06-10T03:11:33;15.20;99.90
42201;DHT22;27869;51.442;7.540;2023-06-10T03:14:01;15.20;99.90
42201;DHT22;27869;51.442;7.540;2023-06-10T03:16:28;15.20;99.90
42201;DHT22;27869;51.442;7.540;2023-06-10T03:18:55;15.10;99.90
42201;DHT22;27869;51.442;7.540;2023-06-10T03:21:24;15.10;99.90
42201;DHT22;27869;51.442;7.540;2023-06-10T03:23:51;15.00;99.90
42201;DHT22;27869;51.442;7.540;2023-06-10T03:26:18;15.10;99.90
42201;DHT22;27869;51.442;7.540;2023-06-10T03:28:46;15.00;99.90
42201;DHT22;27869;51.442;7.540;2023-06-10T03:31:13;15.00;99.90
42201;DHT22;27869;51.442;7.540;2023-06-10T03:33:42;15.00;99.90
42201;DHT22;27869;51.442;7.540;2023-06-10T03:36:09;15.00;99.90
42201;DHT22;27869;51.442;7.540;2023-06-10T03:38:37;14.90;99.90
42201;DHT22;27869;51.442;7.540;2023-06-10T03:41:04;14.90;99.90
42201;DHT22;27869;51.442;7.540;2023-06-10T03:43:31;14.90;99.90
42201;DHT22;27869;51.442;7.540;2023-06-10T03:45:58;14.90;99.90
42201;DHT22;27869;51.442;7.540;2023-06-10T03:48:25;14.90;99.90
42201;DHT22;27869;51.442;7.540;2023-06-10T03:50:52;14.90;99.90
42201;DHT22;27869;51.442;7.540;2023-06-10T03:53:19;14.90;99.90
42201;DHT22;27869;51.442;7.540;2023-06-10T03:55:48;14.80;99.90
42201;DHT22;27869;51.442;7.540;2023-06-10T03:58:15;14.80;99.90
42201;DHT22;27869;51.442;7.540;2023-06-10T04:00:43;14.80;99.90
42201;DHT22;27869;51.442;7.540;2023-06-10T04:03:11;14.80;99.90
42201;DHT22;27869;51.442;7.540;2023-06-10T04:05:40;14.80;99.90
42201;DHT22;27869;51.442;7.540;2023-06-10T04:08:07;14.80;99.90
42201;DHT22;27869;51.442;7.540;2023-06-10T04:10:34;14.80;99.90
42201;DHT22;27869;51.442;7.540;2023-06-10T04:13:02;14.80;99.90
42201;DHT22;27869;51.442;7.540;2023-06-10T04:15:30;14.80;99.90
42201;DHT22;27869;51.442;7.540;2023-06-10T04:17:58;14.80;99.90
42201;DHT22;27869;51.442;7.540;2023-06-10T04:20:26;14.80;99.90
42201;DHT22;27869;51.442;7.540;2023-06-10T04:22:53;14.80;99.90
42201;DHT22;27869;51.442;7.540;2023-06-10T04:25:20;14.90;99.90
42201;DHT22;27869;51.442;7.540;2023-06-10T04:27:47;14.90;99.90
42201;DHT22;27869;51.442;7.540;2023-06-10T04:30:16;14.90;99.90
42201;DHT22;27869;51.442;7.540;2023-06-10T04:32:43;14.90;99.90
42201;DHT22;27869;51.442;7.540;2023-06-10T04:35:11;15.00;99.90
42201;DHT22;27869;51.442;7.540;2023-06-10T04:37:38;15.00;99.90
42201;DHT22;27869;51.442;7.540;2023-06-10T04:40:07;15.00;99.90
42201;DHT22;27869;51.442;7.540;2023-06-10T04:42:34;15.10;99.90
42201;DHT22;27869;51.442;7.540;2023-06-10T04:45:01;15.10;99.90
42201;DHT22;27869;51.442;7.540;2023-06-10T04:47:30;15.10;99.90
42201;DHT22;27869;51.442;7.540;2023-06-10T04:49:59;15.20;99.90
42201;DHT22;27869;51.442;7.540;2023-06-10T04:52:26;15.30;99.90
42201;DHT22;27869;51.442;7.540;2023-06-10T04:54:53;15.30;99.90
42201;DHT22;27869;51.442;7.540;2023-06-10T04:57:20;15.40;99.90
42201;DHT22;27869;51.442;7.540;2023-06-10T04:59:47;15.50;99.90
42201;DHT22;27869;51.442;7.540;2023-06-10T05:02:14;15.60;99.90
42201;DHT22;27869;51.442;7.540;2023-06-10T05:04:42;15.60;99.90
42201;DHT22;27869;51.442;7.540;2023-06-10T05:07:09;15.70;99.90
42201;DHT22;27869;51.442;7.540;2023-06-10T05:09:36;15.80;99.90
42201;DHT22;27869;51.442;7.540;2023-06-10T05:12:04;15.90;99.90
42201;DHT22;27869;51.442;7.540;2023-06-10T05:14:32;15.90;99.90
42201;DHT22;27869;51.442;7.540;2023-06-10T05:16:58;16.10;99.90
42201;DHT22;27869;51.442;7.540;2023-06-10T05:19:26;16.10;99.90
42201;DHT22;27869;51.442;7.540;2023-06-10T05:21:54;16.20;99.90
42201;DHT22;27869;51.442;7.540;2023-06-10T05:24:21;16.30;99.90
42201;DHT22;27869;51.442;7.540;2023-06-10T05:26:48;16.30;99.90
42201;DHT22;27869;51.442;7.540;2023-06-10T05:29:15;16.40;99.90
42201;DHT22;27869;51.442;7.540;2023-06-10T05:31:42;16.50;99.90
42201;DHT22;27869;51.442;7.540;2023-06-10T05:34:09;16.60;99.90
42201;DHT22;27869;51.442;7.540;2023-06-10T05:36:36;16.60;99.90
42201;DHT22;27869;51.442;7.540;2023-06-10T05:39:04;16.70;99.90
42201;DHT22;27869;51.442;7.540;2023-06-10T05:41:31;16.80;99.90
42201;DHT22;27869;51.442;7.540;2023-06-10T05:43:58;16.90;99.90
42201;DHT22;27869;51.442;7.540;2023-06-10T05:46:25;17.00;99.90
42201;DHT22;27869;51.442;7.540;2023-06-10T05:48:52;17.00;99.90
42201;DHT22;27869;51.442;7.540;2023-06-10T05:51:19;17.10;99.90
42201;DHT22;27869;51.442;7.540;2023-06-10T05:53:46;17.20;99.90
42201;DHT22;27869;51.442;7.540;2023-06-10T05:56:14;17.30;99.90
42201;DHT22;27869;51.442;7.540;2023-06-10T05:58:41;17.40;99.90
42201;DHT22;27869;51.442;7.540;2023-06-10T06:01:08;17.50;99.90
42201;DHT22;27869;51.442;7.540;2023-06-10T06:03:35;17.60;99.90
42201;DHT22;27869;51.442;7.540;2023-06-10T06:06:03;17.70;99.90
42201;DHT22;27869;51.442;7.540;2023-06-10T06:08:30;17.80;99.90
42201;DHT22;27869;51.442;7.540;2023-06-10T06:10:57;17.80;99.90
42201;DHT22;27869;51.442;7.540;2023-06-10T06:13:25;18.00;99.90
42201;DHT22;27869;51.442;7.540;2023-06-10T06:15:52;18.00;99.90
42201;DHT22;27869;51.442;7.540;2023-06-10T06:18:19;18.10;99.90
42201;DHT22;27869;51.442;7.540;2023-06-10T06:20:46;18.30;99.90
42201;DHT22;27869;51.442;7.540;2023-06-10T06:23:13;18.30;99.90
42201;DHT22;27869;51.442;7.540;2023-06-10T06:25:40;18.40;99.90
42201;DHT22;27869;51.442;7.540;2023-06-10T06:28:07;18.50;99.90
42201;DHT22;27869;51.442;7.540;2023-06-10T06:30:36;18.60;99.90
42201;DHT22;27869;51.442;7.540;2023-06-10T06:33:03;18.70;99.90
42201;DHT22;27869;51.442;7.540;2023-06-10T06:35:31;18.80;99.90
42201;DHT22;27869;51.442;7.540;2023-06-10T06:37:58;18.90;99.90
42201;DHT22;27869;51.442;7.540;2023-06-10T06:40:25;19.00;99.90
42201;DHT22;27869;51.442;7.540;2023-06-10T06:42:52;19.10;99.90
42201;DHT22;27869;51.442;7.540;2023-06-10T06:45:19;19.20;99.90
42201;DHT22;27869;51.442;7.540;2023-06-10T06:47:47;19.30;99.90
42201;DHT22;27869;51.442;7.540;2023-06-10T06:50:15;19.50;99.90
42201;DHT22;27869;51.442;7.540;2023-06-10T06:52:44;19.60;99.90
42201;DHT22;27869;51.442;7.540;2023-06-10T06:55:10;19.70;99.90
42201;DHT22;27869;51.442;7.540;2023-06-10T06:57:37;19.90;99.90
42201;DHT22;27869;51.442;7.540;2023-06-10T07:00:05;20.00;99.90
42201;DHT22;27869;51.442;7.540;2023-06-10T07:02:34;20.10;99.90
42201;DHT22;27869;51.442;7.540;2023-06-10T07:05:03;20.30;99.90
42201;DHT22;27869;51.442;7.540;2023-06-10T07:07:30;20.40;99.90
42201;DHT22;27869;51.442;7.540;2023-06-10T07:09:56;20.50;99.90
42201;DHT22;27869;51.442;7.540;2023-06-10T07:12:23;20.60;99.90
42201;DHT22;27869;51.442;7.540;2023-06-10T07:14:50;20.80;99.90
42201;DHT22;27869;51.442;7.540;2023-06-10T07:17:17;20.90;99.90
42201;DHT22;27869;51.442;7.540;2023-06-10T07:19:44;21.10;99.90
42201;DHT22;27869;51.442;7.540;2023-06-10T07:22:14;21.20;99.90
42201;DHT22;27869;51.442;7.540;2023-06-10T07:24:41;21.30;99.90
42201;DHT22;27869;51.442;7.540;2023-06-10T07:27:08;21.50;99.90
42201;DHT22;27869;51.442;7.540;2023-06-10T07:29:35;21.60;99.90
42201;DHT22;27869;51.442;7.540;2023-06-10T07:32:03;21.70;99.90
42201;DHT22;27869;51.442;7.540;2023-06-10T07:34:30;21.80;99.90
42201;DHT22;27869;51.442;7.540;2023-06-10T07:36:57;22.00;99.90
42201;DHT22;27869;51.442;7.540;2023-06-10T07:39:25;22.10;99.90
42201;DHT22;27869;51.442;7.540;2023-06-10T07:41:52;22.30;99.90
42201;DHT22;27869;51.442;7.540;2023-06-10T07:44:22;22.40;99.90
42201;DHT22;27869;51.442;7.540;2023-06-10T07:46:49;22.50;99.90
42201;DHT22;27869;51.442;7.540;2023-06-10T07:49:16;22.60;99.90
42201;DHT22;27869;51.442;7.540;2023-06-10T07:51:43;22.70;99.90
42201;DHT22;27869;51.442;7.540;2023-06-10T07:54:10;22.90;99.90
42201;DHT22;27869;51.442;7.540;2023-06-10T07:56:39;23.00;99.90
42201;DHT22;27869;51.442;7.540;2023-06-10T07:59:06;23.10;99.90
42201;DHT22;27869;51.442;7.540;2023-06-10T08:01:33;23.30;99.90
42201;DHT22;27869;51.442;7.540;2023-06-10T08:04:01;23.40;99.90
42201;DHT22;27869;51.442;7.540;2023-06-10T08:06:28;23.60;99.90
42201;DHT22;27869;51.442;7.540;2023-06-10T08:08:55;23.70;99.90
42201;DHT22;27869;51.442;7.540;2023-06-10T08:11:22;23.80;99.90
42201;DHT22;27869;51.442;7.540;2023-06-10T08:13:50;23.90;99.90
42201;DHT22;27869;51.442;7.540;2023-06-10T08:16:17;24.00;99.90
42201;DHT22;27869;51.442;7.540;2023-06-10T08:18:44;24.10;99.90
42201;DHT22;27869;51.442;7.540;2023-06-10T08:21:11;24.20;99.90
42201;DHT22;27869;51.442;7.540;2023-06-10T08:23:38;24.40;99.90
42201;DHT22;27869;51.442;7.540;2023-06-10T08:26:05;24.50;99.90
42201;DHT22;27869;51.442;7.540;2023-06-10T08:28:35;24.70;99.90
42201;DHT22;27869;51.442;7.540;2023-06-10T08:31:03;24.80;99.90
42201;DHT22;27869;51.442;7.540;2023-06-10T08:33:30;25.00;99.90
42201;DHT22;27869;51.442;7.540;2023-06-10T08:35:57;25.10;99.90
42201;DHT22;27869;51.442;7.540;2023-06-10T08:38:24;25.20;99.90
42201;DHT22;27869;51.442;7.540;2023-06-10T08:40:53;25.30;99.80
42201;DHT22;27869;51.442;7.540;2023-06-10T08:43:26;25.50;99.90
42201;DHT22;27869;51.442;7.540;2023-06-10T08:45:55;25.60;99.30
42201;DHT22;27869;51.442;7.540;2023-06-10T08:48:27;25.80;99.90
42201;DHT22;27869;51.442;7.540;2023-06-10T08:50:56;25.90;99.20
42201;DHT22;27869;51.442;7.540;2023-06-10T08:53:24;26.10;99.10
42201;DHT22;27869;51.442;7.540;2023-06-10T08:55:53;26.20;99.00
42201;DHT22;27869;51.442;7.540;2023-06-10T08:58:21;26.20;99.00
42201;DHT22;27869;51.442;7.540;2023-06-10T09:00:48;26.30;97.10
42201;DHT22;27869;51.442;7.540;2023-06-10T09:03:15;26.40;99.40
42201;DHT22;27869;51.442;7.540;2023-06-10T09:05:44;26.50;98.80
42201;DHT22;27869;51.442;7.540;2023-06-10T09:08:11;26.70;98.60
42201;DHT22;27869;51.442;7.540;2023-06-10T09:10:38;26.80;96.70
42201;DHT22;27869;51.442;7.540;2023-06-10T09:13:05;26.90;96.40
42201;DHT22;27869;51.442;7.540;2023-06-10T09:15:32;27.00;98.20
42201;DHT22;27869;51.442;7.540;2023-06-10T09:17:59;27.10;97.00
42201;DHT22;27869;51.442;7.540;2023-06-10T09:20:27;27.20;97.40
42201;DHT22;27869;51.442;7.540;2023-06-10T09:22:55;27.30;96.60
42201;DHT22;27869;51.442;7.540;2023-06-10T09:25:34;27.40;96.50
42201;DHT22;27869;51.442;7.540;2023-06-10T09:28:02;27.50;95.40
42201;DHT22;27869;51.442;7.540;2023-06-10T09:30:30;27.60;95.70
42201;DHT22;27869;51.442;7.540;2023-06-10T09:33:00;27.70;96.00
42201;DHT22;27869;51.442;7.540;2023-06-10T09:35:30;27.80;95.70
42201;DHT22;27869;51.442;7.540;2023-06-10T09:37:58;28.00;95.40
42201;DHT22;27869;51.442;7.540;2023-06-10T09:40:26;28.00;93.00
42201;DHT22;27869;51.442;7.540;2023-06-10T09:42:54;28.10;95.20
42201;DHT22;27869;51.442;7.540;2023-06-10T09:45:22;28.20;94.90
42201;DHT22;27869;51.442;7.540;2023-06-10T09:47:52;28.20;94.50
42201;DHT22;27869;51.442;7.540;2023-06-10T09:50:19;28.30;92.90
42201;DHT22;27869;51.442;7.540;2023-06-10T09:52:47;28.30;93.40
42201;DHT22;27869;51.442;7.540;2023-06-10T09:55:16;28.30;94.20
42201;DHT22;27869;51.442;7.540;2023-06-10T09:57:43;28.30;93.60
42201;DHT22;27869;51.442;7.540;2023-06-10T10:00:14;28.30;93.30
42201;DHT22;27869;51.442;7.540;2023-06-10T10:02:46;28.40;92.50
42201;DHT22;27869;51.442;7.540;2023-06-10T10:05:14;28.50;92.70
42201;DHT22;27869;51.442;7.540;2023-06-10T10:07:41;28.60;92.70
42201;DHT22;27869;51.442;7.540;2023-06-10T10:10:09;28.70;92.20
42201;DHT22;27869;51.442;7.540;2023-06-10T10:12:39;28.80;92.00
42201;DHT22;27869;51.442;7.540;2023-06-10T10:15:08;28.90;91.60
42201;DHT22;27869;51.442;7.540;2023-06-10T10:17:39;29.00;91.50
42201;DHT22;27869;51.442;7.540;2023-06-10T10:20:08;29.10;91.20
42201;DHT22;27869;51.442;7.540;2023-06-10T10:22:39;29.20;90.90
42201;DHT22;27869;51.442;7.540;2023-06-10T10:25:07;29.30;91.00
42201;DHT22;27869;51.442;7.540;2023-06-10T10:27:36;29.30;87.60
42201;DHT22;27869;51.442;7.540;2023-06-10T10:30:10;29.40;90.90
42201;DHT22;27869;51.442;7.540;2023-06-10T10:32:42;29.50;90.30
42201;DHT22;27869;51.442;7.540;2023-06-10T10:35:14;29.70;89.10
42201;DHT22;27869;51.442;7.540;2023-06-10T10:37:42;29.80;87.20
42201;DHT22;27869;51.442;7.540;2023-06-10T10:40:10;29.90;88.90
42201;DHT22;27869;51.442;7.540;2023-06-10T10:42:38;29.90;86.30
42201;DHT22;27869;51.442;7.540;2023-06-10T10:45:08;30.00;88.00
42201;DHT22;27869;51.442;7.540;2023-06-10T10:47:36;30.20;86.10
42201;DHT22;27869;51.442;7.540;2023-06-10T10:50:14;30.30;85.70
42201;DHT22;27869;51.442;7.540;2023-06-10T10:52:52;30.40;84.00
42201;DHT22;27869;51.442;7.540;2023-06-10T10:55:20;30.50;82.40
42201;DHT22;27869;51.442;7.540;2023-06-10T10:57:54;30.50;84.20
42201;DHT22;27869;51.442;7.540;2023-06-10T11:00:27;30.60;81.40
42201;DHT22;27869;51.442;7.540;2023-06-10T11:02:58;30.70;78.40
42201;DHT22;27869;51.442;7.540;2023-06-10T11:05:35;30.90;80.50
42201;DHT22;27869;51.442;7.540;2023-06-10T11:08:02;30.90;79.80
42201;DHT22;27869;51.442;7.540;2023-06-10T11:10:30;31.00;80.40
42201;DHT22;27869;51.442;7.540;2023-06-10T11:12:57;31.00;80.20
42201;DHT22;27869;51.442;7.540;2023-06-10T11:15:26;31.00;77.60
42201;DHT22;27869;51.442;7.540;2023-06-10T11:18:19;30.90;75.60
42201;DHT22;27869;51.442;7.540;2023-06-10T11:20:55;30.80;76.20
42201;DHT22;27869;51.442;7.540;2023-06-10T11:23:39;30.90;79.30
42201;DHT22;27869;51.442;7.540;2023-06-10T11:26:20;30.90;77.70
42201;DHT22;27869;51.442;7.540;2023-06-10T11:29:17;30.90;78.60
42201;DHT22;27869;51.442;7.540;2023-06-10T11:31:49;30.90;76.00
42201;DHT22;27869;51.442;7.540;2023-06-10T11:34:22;30.90;78.70
42201;DHT22;27869;51.442;7.540;2023-06-10T11:36:51;30.90;77.50
42201;DHT22;27869;51.442;7.540;2023-06-10T11:39:19;30.90;77.90
42201;DHT22;27869;51.442;7.540;2023-06-10T11:41:46;30.90;77.30
42201;DHT22;27869;51.442;7.540;2023-06-10T11:44:13;30.80;73.50
42201;DHT22;27869;51.442;7.540;2023-06-10T11:46:40;30.70;72.20
42201;DHT22;27869;51.442;7.540;2023-06-10T11:49:11;30.70;78.80
42201;DHT22;27869;51.442;7.540;2023-06-10T11:51:39;30.60;77.60
42201;DHT22;27869;51.442;7.540;2023-06-10T11:54:08;30.60;77.70
42201;DHT22;27869;51.442;7.540;2023-06-10T11:56:36;30.50;75.50
42201;DHT22;27869;51.442;7.540;2023-06-10T11:59:04;30.40;76.70
42201;DHT22;27869;51.442;7.540;2023-06-10T12:01:33;30.40;76.20
42201;DHT22;27869;51.442;7.540;2023-06-10T12:04:02;30.20;76.30
42201;DHT22;27869;51.442;7.540;2023-06-10T12:06:40;30.20;76.60
42201;DHT22;27869;51.442;7.540;2023-06-10T12:09:13;30.10;74.40
42201;DHT22;27869;51.442;7.540;2023-06-10T12:11:41;30.10;76.10
42201;DHT22;27869;51.442;7.540;2023-06-10T12:14:08;30.00;75.50
42201;DHT22;27869;51.442;7.540;2023-06-10T12:16:35;30.00;75.90
42201;DHT22;27869;51.442;7.540;2023-06-10T12:19:03;29.80;75.90
42201;DHT22;27869;51.442;7.540;2023-06-10T12:21:32;29.80;75.90
42201;DHT22;27869;51.442;7.540;2023-06-10T12:24:10;29.80;75.70
42201;DHT22;27869;51.442;7.540;2023-06-10T12:26:42;29.80;74.20
42201;DHT22;27869;51.442;7.540;2023-06-10T12:29:21;29.80;72.50
42201;DHT22;27869;51.442;7.540;2023-06-10T12:32:00;29.80;72.70
42201;DHT22;27869;51.442;7.540;2023-06-10T12:34:33;29.70;73.10
42201;DHT22;27869;51.442;7.540;2023-06-10T12:37:01;29.70;74.00
42201;DHT22;27869;51.442;7.540;2023-06-10T12:39:30;29.70;74.40
42201;DHT22;27869;51.442;7.540;2023-06-10T12:41:58;29.70;74.00
42201;DHT22;27869;51.442;7.540;2023-06-10T12:44:35;29.60;74.10
42201;DHT22;27869;51.442;7.540;2023-06-10T12:47:07;29.60;73.70
42201;DHT22;27869;51.442;7.540;2023-06-10T12:49:35;29.60;71.40
42201;DHT22;27869;51.442;7.540;2023-06-10T12:52:03;29.50;73.10
42201;DHT22;27869;51.442;7.540;2023-06-10T12:54:31;29.40;73.20
42201;DHT22;27869;51.442;7.540;2023-06-10T12:56:58;29.30;72.30
42201;DHT22;27869;51.442;7.540;2023-06-10T12:59:26;29.20;69.50
42201;DHT22;27869;51.442;7.540;2023-06-10T13:01:53;29.10;72.10
42201;DHT22;27869;51.442;7.540;2023-06-10T13:04:21;29.10;72.50
42201;DHT22;27869;51.442;7.540;2023-06-10T13:06:48;29.10;72.20
42201;DHT22;27869;51.442;7.540;2023-06-10T13:09:15;29.10;71.40
42201;DHT22;27869;51.442;7.540;2023-06-10T13:11:44;29.00;72.50
42201;DHT22;27869;51.442;7.540;2023-06-10T13:14:11;29.00;72.00
42201;DHT22;27869;51.442;7.540;2023-06-10T13:16:38;29.00;72.40
42201;DHT22;27869;51.442;7.540;2023-06-10T13:19:05;28.90;72.10
42201;DHT22;27869;51.442;7.540;2023-06-10T13:21:33;28.90;72.10
42201;DHT22;27869;51.442;7.540;2023-06-10T13:24:00;28.90;71.70
42201;DHT22;27869;51.442;7.540;2023-06-10T13:26:27;28.90;71.20
42201;DHT22;27869;51.442;7.540;2023-06-10T13:28:55;28.80;71.00
42201;DHT22;27869;51.442;7.540;2023-06-10T13:31:23;28.80;70.40
42201;DHT22;27869;51.442;7.540;2023-06-10T13:33:49;28.80;69.90
42201;DHT22;27869;51.442;7.540;2023-06-10T13:36:16;28.70;70.20
42201;DHT22;27869;51.442;7.540;2023-06-10T13:38:43;28.70;69.50
42201;DHT22;27869;51.442;7.540;2023-06-10T13:41:10;28.70;69.80
42201;DHT22;27869;51.442;7.540;2023-06-10T13:43:38;28.70;69.80
42201;DHT22;27869;51.442;7.540;2023-06-10T13:46:06;28.60;69.00
42201;DHT22;27869;51.442;7.540;2023-06-10T13:48:33;28.60;69.90
42201;DHT22;27869;51.442;7.540;2023-06-10T13:51:00;28.50;69.00
42201;DHT22;27869;51.442;7.540;2023-06-10T13:53:27;28.50;69.20
42201;DHT22;27869;51.442;7.540;2023-06-10T13:55:54;28.40;69.00
42201;DHT22;27869;51.442;7.540;2023-06-10T13:58:21;28.40;69.70
42201;DHT22;27869;51.442;7.540;2023-06-10T14:00:48;28.40;69.20
42201;DHT22;27869;51.442;7.540;2023-06-10T14:03:16;28.40;69.60
42201;DHT22;27869;51.442;7.540;2023-06-10T14:05:43;28.40;69.80
42201;DHT22;27869;51.442;7.540;2023-06-10T14:08:10;28.40;69.80
42201;DHT22;27869;51.442;7.540;2023-06-10T14:10:37;28.40;68.80
42201;DHT22;27869;51.442;7.540;2023-06-10T14:13:04;28.40;69.10
42201;DHT22;27869;51.442;7.540;2023-06-10T14:15:31;28.30;68.80
42201;DHT22;27869;51.442;7.540;2023-06-10T14:17:59;28.30;68.80
42201;DHT22;27869;51.442;7.540;2023-06-10T14:20:27;28.30;68.90
42201;DHT22;27869;51.442;7.540;2023-06-10T14:22:57;28.30;67.90
42201;DHT22;27869;51.442;7.540;2023-06-10T14:25:24;28.30;67.60
42201;DHT22;27869;51.442;7.540;2023-06-10T14:27:51;28.20;67.90
42201;DHT22;27869;51.442;7.540;2023-06-10T14:30:18;28.20;68.70
42201;DHT22;27869;51.442;7.540;2023-06-10T14:32:45;28.20;68.60
42201;DHT22;27869;51.442;7.540;2023-06-10T14:35:12;28.30;68.70
42201;DHT22;27869;51.442;7.540;2023-06-10T14:37:40;28.30;68.10
42201;DHT22;27869;51.442;7.540;2023-06-10T14:40:08;28.30;68.00
42201;DHT22;27869;51.442;7.540;2023-06-10T14:42:35;28.20;68.10
42201;DHT22;27869;51.442;7.540;2023-06-10T14:45:02;28.30;68.00
42201;DHT22;27869;51.442;7.540;2023-06-10T14:47:29;28.30;67.70
42201;DHT22;27869;51.442;7.540;2023-06-10T14:49:56;28.30;68.20
42201;DHT22;27869;51.442;7.540;2023-06-10T14:52:23;28.30;68.60
42201;DHT22;27869;51.442;7.540;2023-06-10T14:54:51;28.30;69.00
42201;DHT22;27869;51.442;7.540;2023-06-10T14:57:18;28.30;68.40
42201;DHT22;27869;51.442;7.540;2023-06-10T14:59:45;28.30;68.20
42201;DHT22;27869;51.442;7.540;2023-06-10T15:02:12;28.30;68.30
42201;DHT22;27869;51.442;7.540;2023-06-10T15:04:39;28.20;68.60
42201;DHT22;27869;51.442;7.540;2023-06-10T15:07:06;28.20;68.50
42201;DHT22;27869;51.442;7.540;2023-06-10T15:09:33;28.20;68.50
42201;DHT22;27869;51.442;7.540;2023-06-10T15:12:01;28.20;67.60
42201;DHT22;27869;51.442;7.540;2023-06-10T15:14:29;28.30;68.00
42201;DHT22;27869;51.442;7.540;2023-06-10T15:16:56;28.30;67.80
42201;DHT22;27869;51.442;7.540;2023-06-10T15:19:24;28.30;67.30
42201;DHT22;27869;51.442;7.540;2023-06-10T15:21:51;28.30;68.00
42201;DHT22;27869;51.442;7.540;2023-06-10T15:24:18;28.30;67.70
42201;DHT22;27869;51.442;7.540;2023-06-10T15:26:45;28.30;67.80
42201;DHT22;27869;51.442;7.540;2023-06-10T15:29:14;28.30;67.40
42201;DHT22;27869;51.442;7.540;2023-06-10T15:31:40;28.30;67.70
42201;DHT22;27869;51.442;7.540;2023-06-10T15:34:07;28.30;68.30
42201;DHT22;27869;51.442;7.540;2023-06-10T15:36:34;28.30;68.30